Time;durP1;ratioP1;P1;durP2;ratioP2;P2;SDS_P1;SDS_P2;PMS_P1;PMS_P2;Temp;Humidity;BMP_temperature;BMP_pressure;BME280_temperature;BME280_humidity;BME280_pressure;Samples;Min_cycle;Max_cycle;Signal;HPM_P1;HPM_P2
2023/09/06 00:01:05;;;;;;;5.68;4.60;;;17.10;99.90;;;;;;5029763;28;20044;-67
2023/09/06 00:03:32;;;;;;;5.80;4.35;;;17.10;99.90;;;;;;5025039;28;20448;-67
2023/09/06 00:05:58;;;;;;;7.47;4.90;;;17.10;99.90;;;;;;5014270;28;20458;-67
2023/09/06 00:08:24;;;;;;;7.13;4.88;;;17.10;99.90;;;;;;5032901;28;20053;-67
2023/09/06 00:10:52;;;;;;;7.03;4.65;;;17.00;99.90;;;;;;5030533;28;20420;-67
2023/09/06 00:13:18;;;;;;;6.60;4.72;;;17.00;99.90;;;;;;5026739;28;20796;-67
2023/09/06 00:15:43;;;;;;;5.45;4.78;;;17.00;99.90;;;;;;5025678;28;20037;-66
2023/09/06 00:18:09;;;;;;;4.70;4.20;;;16.90;99.90;;;;;;5033671;28;20445;-67
2023/09/06 00:20:38;;;;;;;5.55;4.70;;;16.90;99.90;;;;;;5024967;28;20044;-67
2023/09/06 00:23:05;;;;;;;6.68;5.30;;;16.80;99.90;;;;;;5036479;28;20033;-67
2023/09/06 00:25:32;;;;;;;7.15;4.32;;;16.80;99.90;;;;;;5033069;28;20053;-67
2023/09/06 00:28:06;;;;;;;6.50;4.72;;;16.70;99.90;;;;;;5033715;28;20048;-67
2023/09/06 00:30:32;;;;;;;6.25;4.50;;;16.70;99.90;;;;;;5034536;28;20052;-66
2023/09/06 00:32:59;;;;;;;5.13;4.38;;;16.70;99.90;;;;;;5034312;28;20647;-67
2023/09/06 00:35:26;;;;;;;4.35;3.85;;;16.60;99.90;;;;;;5040081;28;20048;-67
2023/09/06 00:37:53;;;;;;;4.93;3.83;;;16.60;99.90;;;;;;5035463;28;20048;-66
2023/09/06 00:40:19;;;;;;;5.15;3.60;;;16.60;99.90;;;;;;5039078;28;20096;-67
2023/09/06 00:42:49;;;;;;;6.57;4.00;;;16.40;99.90;;;;;;5040761;28;20037;-67
2023/09/06 00:45:17;;;;;;;6.80;4.43;;;16.40;99.90;;;;;;5036290;28;20044;-67
2023/09/06 00:47:43;;;;;;;6.32;4.70;;;16.40;99.90;;;;;;5032148;28;20132;-67
2023/09/06 00:50:11;;;;;;;5.82;4.80;;;16.30;99.90;;;;;;5033368;28;20830;-67
2023/09/06 00:52:37;;;;;;;6.60;5.07;;;16.30;99.90;;;;;;5038319;28;20041;-66
2023/09/06 00:55:04;;;;;;;5.95;4.40;;;16.20;99.90;;;;;;5025338;28;20037;-67
2023/09/06 00:57:30;;;;;;;4.97;4.50;;;16.20;99.90;;;;;;5038613;28;20075;-67
2023/09/06 00:59:59;;;;;;;5.28;4.20;;;16.10;99.90;;;;;;5022467;28;20032;-66
2023/09/06 01:02:28;;;;;;;6.60;5.57;;;16.10;99.90;;;;;;5036896;28;20049;-67
2023/09/06 01:04:54;;;;;;;6.97;4.80;;;16.10;99.90;;;;;;5040211;28;20060;-66
2023/09/06 01:07:23;;;;;;;6.05;5.05;;;16.10;99.90;;;;;;5033329;28;20071;-68
2023/09/06 01:09:49;;;;;;;5.07;4.57;;;16.00;99.90;;;;;;5042936;28;20047;-67
2023/09/06 01:12:15;;;;;;;5.00;4.50;;;15.90;99.90;;;;;;5032799;28;20389;-67
2023/09/06 01:14:41;;;;;;;4.97;4.43;;;15.90;99.90;;;;;;5028681;28;20049;-67
2023/09/06 01:17:08;;;;;;;6.47;5.68;;;15.90;99.90;;;;;;5036253;28;20045;-67
2023/09/06 01:19:36;;;;;;;5.40;4.82;;;15.90;99.90;;;;;;5037962;28;20137;-67
2023/09/06 01:22:22;;;;;;;6.13;4.55;;;15.90;99.90;;;;;;5033431;28;20112;-67
2023/09/06 01:24:49;;;;;;;4.40;4.00;;;16.00;99.90;;;;;;5036879;28;20043;-67
2023/09/06 01:27:15;;;;;;;5.15;4.40;;;15.90;99.90;;;;;;5037169;28;20124;-67
2023/09/06 01:29:41;;;;;;;5.35;4.45;;;16.00;99.90;;;;;;5040857;28;20417;-66
2023/09/06 01:32:06;;;;;;;5.93;4.10;;;15.90;99.90;;;;;;5038472;28;20048;-67
2023/09/06 01:34:32;;;;;;;5.30;4.22;;;15.80;99.90;;;;;;5030305;28;20049;-67
2023/09/06 01:36:58;;;;;;;6.20;4.00;;;15.70;99.90;;;;;;5036044;28;20045;-67
2023/09/06 01:39:23;;;;;;;5.68;4.45;;;15.60;99.90;;;;;;5039577;28;20418;-66
2023/09/06 01:41:49;;;;;;;6.32;4.60;;;15.60;99.90;;;;;;5042490;28;20067;-68
2023/09/06 01:44:14;;;;;;;5.05;4.28;;;15.50;99.90;;;;;;5033717;28;20056;-67
2023/09/06 01:46:40;;;;;;;6.50;5.35;;;15.50;99.90;;;;;;5038321;28;20116;-67
2023/09/06 01:49:08;;;;;;;5.05;4.28;;;15.50;99.90;;;;;;5035864;28;20045;-67
2023/09/06 01:51:34;;;;;;;5.03;4.53;;;15.50;99.90;;;;;;5023405;28;20047;-67
2023/09/06 01:54:01;;;;;;;5.32;3.95;;;15.50;99.90;;;;;;5037934;28;20052;-67
2023/09/06 01:56:27;;;;;;;4.93;4.35;;;15.50;99.90;;;;;;5028025;28;20411;-67
2023/09/06 01:58:53;;;;;;;5.22;4.25;;;15.50;99.90;;;;;;5025480;28;20079;-66
2023/09/06 02:01:19;;;;;;;5.35;4.40;;;15.40;99.90;;;;;;5033845;28;20048;-67
2023/09/06 02:03:45;;;;;;;4.50;4.07;;;15.40;99.90;;;;;;5027837;28;20092;-67
2023/09/06 02:06:10;;;;;;;5.30;4.60;;;15.40;99.90;;;;;;5039403;28;20473;-67
2023/09/06 02:08:36;;;;;;;5.93;4.18;;;15.40;99.90;;;;;;5038103;28;20056;-67
2023/09/06 02:11:01;;;;;;;4.88;4.15;;;15.40;99.90;;;;;;5040100;28;20037;-67
2023/09/06 02:13:27;;;;;;;5.82;4.05;;;15.30;99.90;;;;;;5029543;28;20056;-67
2023/09/06 02:15:52;;;;;;;5.43;4.93;;;15.30;99.90;;;;;;5021560;28;20075;-67
2023/09/06 02:18:18;;;;;;;6.78;5.43;;;15.30;99.90;;;;;;5030098;28;20211;-67
2023/09/06 02:20:44;;;;;;;8.00;5.93;;;15.30;99.90;;;;;;5035430;28;20056;-67
2023/09/06 02:23:10;;;;;;;7.63;5.68;;;15.20;99.90;;;;;;5063812;28;20150;-67
2023/09/06 02:25:36;;;;;;;6.60;5.90;;;15.20;99.90;;;;;;5036073;28;20036;-67
2023/09/06 02:28:05;;;;;;;7.47;5.93;;;15.20;99.90;;;;;;5035419;28;20042;-67
2023/09/06 02:30:31;;;;;;;7.53;6.10;;;15.20;99.90;;;;;;5033379;28;20108;-67
2023/09/06 02:32:57;;;;;;;7.70;6.65;;;15.20;99.90;;;;;;5043801;28;20159;-67
2023/09/06 02:35:22;;;;;;;7.70;6.15;;;15.20;99.90;;;;;;5036509;28;20048;-66
2023/09/06 02:37:48;;;;;;;7.95;5.93;;;15.20;99.90;;;;;;5036732;28;20041;-67
2023/09/06 02:40:18;;;;;;;5.07;4.57;;;15.20;99.90;;;;;;5041077;28;20044;-67
2023/09/06 02:42:44;;;;;;;5.25;4.70;;;15.10;99.90;;;;;;5044008;28;20048;-67
2023/09/06 02:45:11;;;;;;;5.28;4.10;;;15.10;99.90;;;;;;5032306;28;20370;-66
2023/09/06 02:47:39;;;;;;;3.70;3.30;;;15.10;99.90;;;;;;5036480;28;20098;-67
2023/09/06 02:50:07;;;;;;;3.80;3.35;;;15.10;99.90;;;;;;5035133;28;20037;-67
2023/09/06 02:52:35;;;;;;;5.47;4.47;;;15.10;99.90;;;;;;5019203;28;20717;-66
2023/09/06 02:55:04;;;;;;;7.25;4.40;;;15.10;99.90;;;;;;5036039;28;20040;-67
2023/09/06 02:57:30;;;;;;;4.88;4.28;;;15.10;99.90;;;;;;5034203;28;20442;-67
2023/09/06 02:59:56;;;;;;;8.55;6.32;;;15.00;99.90;;;;;;5038150;28;20048;-66
2023/09/06 03:02:22;;;;;;;5.88;5.00;;;15.00;99.90;;;;;;5042377;28;20057;-67
2023/09/06 03:04:57;;;;;;;8.40;5.97;;;15.00;99.90;;;;;;5043902;28;20115;-66
2023/09/06 03:07:23;;;;;;;9.77;6.50;;;15.00;99.90;;;;;;5045162;28;20116;-67
2023/09/06 03:09:51;;;;;;;7.63;5.88;;;14.90;99.90;;;;;;5045544;28;20056;-66
2023/09/06 03:12:17;;;;;;;8.25;5.68;;;14.90;99.90;;;;;;5037863;28;20044;-66
2023/09/06 03:14:44;;;;;;;4.60;4.13;;;14.90;99.90;;;;;;5037509;28;20048;-66
2023/09/06 03:17:11;;;;;;;5.80;4.38;;;14.90;99.90;;;;;;5041054;28;21029;-67
2023/09/06 03:19:45;;;;;;;7.47;4.55;;;14.90;99.90;;;;;;5043115;28;20059;-66
2023/09/06 03:22:12;;;;;;;4.88;4.00;;;14.90;99.90;;;;;;5031148;28;20506;-66
2023/09/06 03:24:43;;;;;;;6.35;4.70;;;14.80;99.90;;;;;;5036267;28;20059;-66
2023/09/06 03:27:10;;;;;;;6.88;5.30;;;14.70;99.90;;;;;;5047008;28;20037;-66
2023/09/06 03:29:38;;;;;;;7.32;5.05;;;14.70;99.90;;;;;;5031514;28;20033;-66
2023/09/06 03:32:08;;;;;;;7.60;4.88;;;14.70;99.90;;;;;;5018850;28;20087;-66
2023/09/06 03:34:38;;;;;;;6.67;4.93;;;14.70;99.90;;;;;;5044734;28;20389;-67
2023/09/06 03:37:05;;;;;;;8.70;5.57;;;14.70;99.90;;;;;;5044857;28;20041;-66
2023/09/06 03:39:32;;;;;;;6.40;5.40;;;14.70;99.90;;;;;;5035393;28;20388;-66
2023/09/06 03:42:01;;;;;;;7.32;4.88;;;14.70;99.90;;;;;;5041766;28;20037;-67
2023/09/06 03:44:27;;;;;;;8.05;5.00;;;14.60;99.90;;;;;;5026832;28;20468;-67
2023/09/06 03:46:56;;;;;;;7.35;5.78;;;14.60;99.90;;;;;;5035690;28;20049;-66
2023/09/06 03:49:23;;;;;;;6.00;5.28;;;14.60;99.90;;;;;;5038775;28;20040;-66
2023/09/06 03:51:50;;;;;;;10.18;6.40;;;14.60;99.90;;;;;;5042851;28;20111;-66
2023/09/06 03:54:18;;;;;;;6.75;5.57;;;14.60;99.90;;;;;;5041042;28;20057;-66
2023/09/06 03:56:43;;;;;;;8.70;5.80;;;14.50;99.90;;;;;;5044889;28;20090;-67
2023/09/06 03:59:09;;;;;;;7.85;5.57;;;14.50;99.90;;;;;;5033495;28;20037;-66
2023/09/06 04:01:36;;;;;;;5.88;5.28;;;14.50;99.90;;;;;;5040380;28;20165;-66
2023/09/06 04:04:02;;;;;;;4.10;3.60;;;14.50;99.90;;;;;;5046065;28;20091;-66
2023/09/06 04:06:30;;;;;;;4.07;2.63;;;14.50;99.90;;;;;;5023013;28;20114;-66
2023/09/06 04:08:56;;;;;;;2.15;1.73;;;14.50;99.90;;;;;;5038828;28;20053;-66
2023/09/06 04:11:22;;;;;;;1.80;1.70;;;14.50;99.90;;;;;;5037911;28;20044;-66
2023/09/06 04:13:50;;;;;;;1.70;1.60;;;14.50;99.90;;;;;;5042686;28;20076;-66
2023/09/06 04:16:16;;;;;;;4.32;2.42;;;14.40;99.90;;;;;;5041689;28;20049;-66
2023/09/06 04:18:42;;;;;;;2.83;2.63;;;14.40;99.90;;;;;;5039686;28;20043;-66
2023/09/06 04:21:10;;;;;;;3.35;3.05;;;14.30;99.90;;;;;;5046880;28;20123;-66
2023/09/06 04:23:40;;;;;;;4.85;3.95;;;14.30;99.90;;;;;;5039303;28;20140;-66
2023/09/06 04:26:05;;;;;;;4.23;3.80;;;14.20;99.90;;;;;;5033238;28;20150;-66
2023/09/06 04:28:31;;;;;;;4.22;3.83;;;14.20;99.90;;;;;;5032256;28;20041;-66
2023/09/06 04:30:58;;;;;;;5.60;4.68;;;14.30;99.90;;;;;;5038365;28;20113;-66
2023/09/06 04:33:24;;;;;;;6.82;6.13;;;14.20;99.90;;;;;;5036363;28;20045;-66
2023/09/06 04:35:50;;;;;;;7.30;5.70;;;14.20;99.90;;;;;;5036805;28;20106;-66
2023/09/06 04:38:18;;;;;;;6.70;5.97;;;14.20;99.90;;;;;;5037793;28;20877;-66
2023/09/06 04:40:44;;;;;;;7.10;5.63;;;14.30;99.90;;;;;;5037095;28;20069;-66
2023/09/06 04:43:10;;;;;;;8.82;5.97;;;14.30;99.90;;;;;;5036388;28;20112;-66
2023/09/06 04:45:39;;;;;;;9.57;6.28;;;14.30;99.90;;;;;;5031731;28;20048;-66
2023/09/06 04:48:08;;;;;;;8.35;7.25;;;14.40;99.90;;;;;;5037592;28;20056;-66
2023/09/06 04:50:35;;;;;;;9.00;7.00;;;14.50;99.90;;;;;;5043756;28;20045;-66
2023/09/06 04:53:00;;;;;;;9.10;7.47;;;14.50;99.90;;;;;;5038884;28;20041;-66
2023/09/06 04:55:26;;;;;;;9.35;6.90;;;14.50;99.90;;;;;;5035280;28;20155;-66
2023/09/06 04:57:53;;;;;;;8.20;6.72;;;14.50;99.90;;;;;;5042545;28;20037;-66
2023/09/06 05:00:24;;;;;;;11.05;6.35;;;14.50;99.90;;;;;;5042058;28;20041;-66
2023/09/06 05:02:54;;;;;;;7.97;6.93;;;14.50;99.90;;;;;;5045749;28;20120;-66
2023/09/06 05:05:21;;;;;;;8.90;7.20;;;14.60;99.90;;;;;;5013545;28;20080;-66
2023/09/06 05:07:47;;;;;;;10.90;7.80;;;14.60;99.90;;;;;;5032225;28;20059;-66
2023/09/06 05:10:12;;;;;;;8.95;6.78;;;14.60;99.90;;;;;;5040537;28;20111;-66
2023/09/06 05:12:38;;;;;;;8.55;6.90;;;14.60;99.90;;;;;;5034609;28;20044;-66
2023/09/06 05:15:05;;;;;;;9.30;6.88;;;14.60;99.90;;;;;;5042668;28;20041;-66
2023/09/06 05:17:32;;;;;;;11.15;6.90;;;14.70;99.90;;;;;;5038900;28;20118;-66
2023/09/06 05:20:34;;;;;;;10.82;7.75;;;14.70;99.90;;;;;;5041495;28;20091;-66
2023/09/06 05:23:05;;;;;;;10.65;7.45;;;14.80;99.90;;;;;;5036681;28;20386;-66
2023/09/06 05:25:31;;;;;;;11.18;8.55;;;14.90;99.90;;;;;;5041022;28;20052;-66
2023/09/06 05:28:00;;;;;;;11.45;7.97;;;15.00;99.90;;;;;;5022580;28;20029;-66
2023/09/06 05:30:26;;;;;;;10.50;7.90;;;15.00;99.90;;;;;;5038458;28;20037;-66
2023/09/06 05:32:53;;;;;;;13.07;8.27;;;15.10;99.90;;;;;;5029273;28;20135;-66
2023/09/06 05:35:19;;;;;;;11.80;8.00;;;15.10;99.90;;;;;;5037301;28;20052;-66
2023/09/06 05:37:44;;;;;;;9.95;6.82;;;15.10;99.90;;;;;;5029220;28;20140;-66
2023/09/06 05:40:12;;;;;;;12.75;8.27;;;15.20;99.90;;;;;;5033982;28;20505;-66
2023/09/06 05:42:38;;;;;;;11.05;8.27;;;15.30;99.90;;;;;;5033556;28;20069;-66
2023/09/06 05:45:04;;;;;;;9.90;7.75;;;15.30;99.90;;;;;;5037860;28;20044;-66
2023/09/06 05:47:30;;;;;;;12.60;8.13;;;15.40;99.90;;;;;;5039504;28;20461;-66
2023/09/06 05:49:56;;;;;;;11.02;8.10;;;15.50;99.90;;;;;;5033507;28;20043;-65
2023/09/06 05:52:22;;;;;;;9.57;7.50;;;15.50;99.90;;;;;;5036557;28;20126;-66
2023/09/06 05:54:48;;;;;;;13.50;8.73;;;15.60;99.90;;;;;;5027929;28;21331;-66
2023/09/06 05:57:14;;;;;;;10.38;7.97;;;15.60;99.90;;;;;;5030478;28;20084;-66
2023/09/06 05:59:39;;;;;;;12.05;8.65;;;15.70;99.90;;;;;;5034301;28;20377;-67
2023/09/06 06:02:05;;;;;;;11.57;8.70;;;15.80;99.90;;;;;;5044698;28;20458;-67
2023/09/06 06:04:32;;;;;;;12.60;8.95;;;15.90;99.90;;;;;;5042170;28;20172;-67
2023/09/06 06:06:58;;;;;;;9.95;8.68;;;16.00;99.90;;;;;;5038177;28;20120;-66
2023/09/06 06:09:25;;;;;;;13.35;8.43;;;16.10;99.90;;;;;;5036424;28;20041;-67
2023/09/06 06:11:53;;;;;;;13.38;8.95;;;16.10;99.90;;;;;;5037549;28;20120;-67
2023/09/06 06:14:19;;;;;;;13.27;9.73;;;16.30;99.90;;;;;;5040218;28;20525;-67
2023/09/06 06:16:44;;;;;;;11.90;9.48;;;16.30;99.90;;;;;;5040216;28;20138;-67
2023/09/06 06:19:11;;;;;;;10.75;8.95;;;16.50;99.90;;;;;;5040866;28;20100;-67
2023/09/06 06:21:37;;;;;;;17.25;9.50;;;16.60;99.90;;;;;;5039782;28;20603;-67
2023/09/06 06:24:04;;;;;;;11.15;8.73;;;16.70;99.90;;;;;;5038342;28;20055;-67
2023/09/06 06:26:30;;;;;;;11.48;8.60;;;16.70;99.90;;;;;;5032293;28;20786;-67
2023/09/06 06:28:55;;;;;;;11.18;8.48;;;16.80;99.90;;;;;;5026015;28;20056;-67
2023/09/06 06:31:21;;;;;;;11.48;8.38;;;17.00;99.90;;;;;;5045829;28;20039;-65
2023/09/06 06:33:47;;;;;;;10.57;8.68;;;17.20;99.90;;;;;;5045945;28;20086;-67
2023/09/06 06:36:13;;;;;;;10.48;7.45;;;17.50;99.90;;;;;;5045624;28;20485;-68
2023/09/06 06:38:40;;;;;;;8.90;7.15;;;17.80;99.90;;;;;;5042343;28;20041;-67
2023/09/06 06:41:15;;;;;;;9.88;6.60;;;18.00;99.90;;;;;;5046104;28;20051;-67
2023/09/06 06:43:41;;;;;;;9.18;6.78;;;18.30;99.90;;;;;;5041947;28;20052;-67
2023/09/06 06:46:26;;;;;;;7.32;6.35;;;18.60;99.90;;;;;;5039505;28;20042;-68
2023/09/06 06:48:52;;;;;;;7.82;6.45;;;18.90;99.90;;;;;;5047379;28;20116;-67
2023/09/06 06:51:17;;;;;;;7.13;5.75;;;19.20;99.90;;;;;;5039647;28;20714;-67
2023/09/06 06:53:43;;;;;;;6.78;5.38;;;19.50;99.90;;;;;;5045473;28;20048;-67
2023/09/06 06:56:09;;;;;;;8.05;5.00;;;19.70;99.90;;;;;;5043960;28;20049;-67
2023/09/06 06:58:34;;;;;;;6.47;5.40;;;19.90;99.90;;;;;;5035452;28;20071;-67
2023/09/06 07:01:00;;;;;;;6.65;5.35;;;20.10;99.90;;;;;;5035079;28;20515;-68
2023/09/06 07:03:26;;;;;;;6.10;4.95;;;20.40;99.90;;;;;;5039904;28;20392;-68
2023/09/06 07:05:52;;;;;;;6.50;4.72;;;20.60;99.90;;;;;;5041149;28;20345;-68
2023/09/06 07:08:17;;;;;;;5.20;4.65;;;20.90;99.90;;;;;;5047470;28;20037;-68
2023/09/06 07:10:43;;;;;;;6.05;4.60;;;21.10;99.90;;;;;;5044922;28;20029;-68
2023/09/06 07:13:09;;;;;;;6.50;4.28;;;21.40;99.90;;;;;;5043901;28;20480;-68
2023/09/06 07:15:35;;;;;;;4.82;4.38;;;21.50;99.90;;;;;;5039904;28;20041;-68
2023/09/06 07:18:04;;;;;;;6.07;3.97;;;21.80;99.90;;;;;;5042740;28;20045;-66
2023/09/06 07:20:30;;;;;;;5.95;4.47;;;22.00;99.90;;;;;;5037651;28;20056;-67
2023/09/06 07:22:55;;;;;;;8.75;4.40;;;22.30;99.90;;;;;;5041120;28;20041;-68
2023/09/06 07:25:21;;;;;;;5.70;4.10;;;22.40;99.90;;;;;;5048281;28;20037;-67
2023/09/06 07:27:47;;;;;;;4.85;4.00;;;22.70;99.40;;;;;;5043490;28;20368;-68
2023/09/06 07:30:12;;;;;;;4.43;3.75;;;22.90;98.10;;;;;;5050103;28;20369;-68
2023/09/06 07:32:38;;;;;;;5.38;4.20;;;23.10;97.20;;;;;;5047353;28;20033;-68
2023/09/06 07:35:05;;;;;;;4.43;3.70;;;23.20;95.40;;;;;;5047214;28;20044;-67
2023/09/06 07:37:31;;;;;;;5.85;3.92;;;23.40;94.80;;;;;;5046819;28;20055;-68
2023/09/06 07:40:00;;;;;;;4.90;3.33;;;23.60;94.30;;;;;;5029697;28;20159;-67
2023/09/06 07:42:25;;;;;;;6.47;3.20;;;23.90;93.10;;;;;;5047860;28;20040;-69
2023/09/06 07:44:52;;;;;;;4.70;3.30;;;24.10;92.40;;;;;;5045609;28;20788;-69
2023/09/06 07:47:17;;;;;;;4.07;3.42;;;24.20;91.50;;;;;;5047405;28;20037;-67
2023/09/06 07:49:43;;;;;;;4.70;3.20;;;24.30;90.80;;;;;;5040510;28;20032;-69
2023/09/06 07:52:08;;;;;;;4.10;3.00;;;24.20;90.10;;;;;;5045153;28;20109;-68
2023/09/06 07:54:34;;;;;;;3.90;3.20;;;24.10;89.00;;;;;;5042874;28;20034;-68
2023/09/06 07:57:00;;;;;;;3.78;2.90;;;24.00;88.10;;;;;;5044838;28;20111;-69
2023/09/06 07:59:25;;;;;;;3.38;2.75;;;24.00;87.50;;;;;;5039805;28;20482;-68
2023/09/06 08:01:51;;;;;;;4.22;2.72;;;24.00;86.70;;;;;;5043523;28;20053;-69
2023/09/06 08:04:20;;;;;;;5.45;3.13;;;24.10;86.40;;;;;;5038426;28;20053;-68
2023/09/06 08:06:46;;;;;;;2.90;2.50;;;24.10;84.50;;;;;;5037147;28;20071;-68
2023/09/06 08:09:13;;;;;;;4.05;2.70;;;24.10;83.30;;;;;;5042776;28;20069;-68
2023/09/06 08:11:38;;;;;;;3.28;2.53;;;24.10;83.20;;;;;;5048651;28;20041;-68
2023/09/06 08:14:04;;;;;;;4.80;2.85;;;24.10;83.50;;;;;;5046029;28;20075;-66
2023/09/06 08:16:31;;;;;;;3.92;3.03;;;24.20;82.00;;;;;;5042665;28;20064;-67
2023/09/06 08:18:56;;;;;;;4.50;2.40;;;24.30;81.40;;;;;;5046508;28;20103;-68
2023/09/06 08:21:22;;;;;;;5.50;2.80;;;24.50;81.70;;;;;;5035671;28;20572;-68
2023/09/06 08:23:48;;;;;;;5.82;3.00;;;24.80;80.40;;;;;;5045614;28;20033;-68
2023/09/06 08:26:16;;;;;;;4.10;2.80;;;25.20;79.10;;;;;;5041287;28;20029;-68
2023/09/06 08:28:41;;;;;;;4.97;2.70;;;25.70;77.00;;;;;;5048784;28;20089;-67
2023/09/06 08:31:08;;;;;;;5.13;2.80;;;26.30;74.90;;;;;;5047731;28;20055;-68
2023/09/06 08:33:34;;;;;;;5.55;2.70;;;26.70;72.70;;;;;;5035375;28;20049;-68
2023/09/06 08:35:59;;;;;;;3.85;2.60;;;27.20;70.50;;;;;;5047308;28;20044;-67
2023/09/06 08:38:25;;;;;;;3.25;2.42;;;27.70;68.70;;;;;;5030938;28;20080;-67
2023/09/06 08:40:51;;;;;;;3.85;2.30;;;28.00;67.30;;;;;;5029206;28;20064;-67
2023/09/06 08:43:19;;;;;;;2.83;2.40;;;28.30;66.30;;;;;;5047754;28;20044;-68
2023/09/06 08:45:48;;;;;;;2.60;2.05;;;28.80;65.40;;;;;;5046380;28;20041;-68
2023/09/06 08:48:15;;;;;;;5.25;2.50;;;29.00;63.50;;;;;;5045911;28;20092;-69
2023/09/06 08:50:41;;;;;;;3.45;2.30;;;29.30;62.70;;;;;;5032453;28;20213;-69
2023/09/06 08:53:10;;;;;;;4.80;2.13;;;29.30;61.40;;;;;;5049509;28;20037;-71
2023/09/06 08:55:36;;;;;;;4.82;2.08;;;29.20;58.60;;;;;;5047940;28;20500;-70
2023/09/06 08:58:05;;;;;;;3.13;1.95;;;29.20;61.30;;;;;;5046387;28;20036;-71
2023/09/06 09:00:31;;;;;;;3.75;2.10;;;29.00;61.80;;;;;;5045753;28;20041;-69
2023/09/06 09:02:57;;;;;;;3.97;2.15;;;28.50;62.30;;;;;;5037593;28;20110;-70
2023/09/06 09:05:23;;;;;;;2.95;1.80;;;28.10;60.90;;;;;;5031982;28;20056;-67
2023/09/06 09:07:57;;;;;;;2.40;2.20;;;27.40;64.00;;;;;;5047184;28;20168;-70
2023/09/06 09:10:26;;;;;;;6.40;2.20;;;27.30;63.40;;;;;;5045438;28;20327;-68
2023/09/06 09:12:52;;;;;;;3.70;2.10;;;27.30;63.90;;;;;;5053800;28;20405;-68
2023/09/06 09:15:21;;;;;;;3.33;2.10;;;27.40;63.00;;;;;;5035621;28;20044;-69
2023/09/06 09:17:50;;;;;;;3.85;1.70;;;27.50;62.20;;;;;;5047082;28;20401;-68
2023/09/06 09:20:15;;;;;;;2.10;1.83;;;27.50;62.40;;;;;;5048692;28;20123;-68
2023/09/06 09:22:41;;;;;;;5.03;2.13;;;27.70;61.90;;;;;;5048559;28;20124;-68
2023/09/06 09:25:17;;;;;;;2.90;1.75;;;27.50;61.30;;;;;;5048406;28;20461;-69
2023/09/06 09:27:49;;;;;;;3.38;2.10;;;27.30;61.80;;;;;;5046724;28;20178;-68
2023/09/06 09:30:16;;;;;;;2.83;2.10;;;27.20;61.00;;;;;;5027461;28;20469;-69
2023/09/06 09:32:42;;;;;;;3.13;1.80;;;27.10;61.50;;;;;;5029274;28;20047;-70
2023/09/06 09:35:12;;;;;;;5.97;1.83;;;27.00;60.60;;;;;;5034472;28;20461;-70
2023/09/06 09:37:40;;;;;;;3.88;2.20;;;27.10;60.70;;;;;;5043346;28;20051;-69
2023/09/06 09:40:20;;;;;;;4.10;2.00;;;27.00;59.20;;;;;;5044122;28;20453;-67
2023/09/06 09:42:53;;;;;;;3.00;1.88;;;27.00;55.30;;;;;;5047349;28;20052;-68
2023/09/06 09:45:19;;;;;;;2.45;1.98;;;26.90;57.70;;;;;;5042401;28;20438;-71
2023/09/06 09:47:45;;;;;;;2.20;1.73;;;26.90;57.50;;;;;;5045384;28;20072;-67
2023/09/06 09:50:11;;;;;;;2.55;2.00;;;27.00;57.10;;;;;;5047187;28;20037;-67
2023/09/06 09:52:42;;;;;;;2.20;2.00;;;27.00;57.30;;;;;;5048856;28;20386;-70
2023/09/06 09:55:10;;;;;;;2.35;2.05;;;27.00;55.70;;;;;;5044213;28;20040;-70
2023/09/06 09:57:37;;;;;;;2.90;1.77;;;27.00;54.80;;;;;;5046517;28;20037;-70
2023/09/06 10:00:03;;;;;;;4.53;2.13;;;27.10;55.00;;;;;;5037420;28;20076;-71
2023/09/06 10:02:30;;;;;;;2.78;1.85;;;27.10;55.10;;;;;;5036716;28;20061;-68
2023/09/06 10:05:00;;;;;;;6.88;2.10;;;27.20;55.10;;;;;;5041924;28;20140;-68
2023/09/06 10:07:27;;;;;;;2.42;2.00;;;27.40;54.70;;;;;;5044718;28;20891;-67
2023/09/06 10:09:53;;;;;;;4.75;2.58;;;27.30;55.70;;;;;;5046982;28;20132;-69
2023/09/06 10:12:20;;;;;;;3.75;1.90;;;27.40;55.50;;;;;;5013269;28;20045;-68
2023/09/06 10:14:45;;;;;;;3.25;1.95;;;27.30;54.70;;;;;;5023940;28;20095;-69
2023/09/06 10:17:12;;;;;;;3.30;1.77;;;27.30;54.30;;;;;;5025949;28;20029;-69
2023/09/06 10:19:38;;;;;;;2.47;1.90;;;27.30;54.70;;;;;;5043354;28;20456;-67
2023/09/06 10:22:09;;;;;;;2.90;1.92;;;27.40;55.10;;;;;;5040274;28;20052;-68
2023/09/06 10:24:35;;;;;;;4.75;1.85;;;27.40;53.80;;;;;;5046142;28;20461;-69
2023/09/06 10:27:02;;;;;;;3.47;2.08;;;27.40;53.80;;;;;;5046330;28;20037;-68
2023/09/06 10:29:32;;;;;;;4.22;2.05;;;27.40;54.70;;;;;;5043327;28;20037;-69
2023/09/06 10:32:04;;;;;;;6.10;2.00;;;27.40;54.40;;;;;;5048071;28;20047;-68
2023/09/06 10:34:36;;;;;;;4.45;2.33;;;27.30;55.50;;;;;;5046964;28;20080;-68
2023/09/06 10:37:06;;;;;;;4.25;2.22;;;27.40;55.80;;;;;;5043315;28;20037;-68
2023/09/06 10:39:31;;;;;;;2.88;1.85;;;27.40;56.40;;;;;;5046329;28;20041;-71
2023/09/06 10:42:09;;;;;;;3.00;1.80;;;27.40;54.80;;;;;;5049016;28;20076;-68
2023/09/06 10:45:07;;;;;;;3.45;1.92;;;27.50;54.00;;;;;;5046300;28;20052;-70
2023/09/06 10:47:34;;;;;;;3.08;1.88;;;27.50;53.90;;;;;;5050630;28;20128;-67
2023/09/06 10:50:11;;;;;;;3.05;1.83;;;27.50;54.30;;;;;;5046940;28;20325;-70
2023/09/06 10:52:48;;;;;;;3.70;1.80;;;27.50;54.00;;;;;;5047965;28;20045;-70
2023/09/06 10:55:20;;;;;;;3.45;2.30;;;27.50;54.90;;;;;;5045499;28;20128;-70
2023/09/06 10:58:06;;;;;;;3.88;1.80;;;27.60;55.20;;;;;;5045929;28;20056;-72
2023/09/06 11:00:34;;;;;;;2.38;2.00;;;27.50;53.30;;;;;;5045492;28;20488;-68
2023/09/06 11:03:21;;;;;;;1.60;1.48;;;27.50;54.10;;;;;;5043949;28;20385;-69
2023/09/06 11:05:56;;;;;;;3.45;1.70;;;27.60;52.90;;;;;;5046234;28;20041;-70
2023/09/06 11:08:29;;;;;;;2.80;1.80;;;27.60;53.60;;;;;;5052789;28;20048;-68
2023/09/06 11:11:07;;;;;;;2.67;1.85;;;27.60;54.50;;;;;;5046903;28;20037;-68
2023/09/06 11:13:33;;;;;;;2.60;1.92;;;27.60;51.80;;;;;;5046153;28;20064;-69
2023/09/06 11:16:03;;;;;;;4.32;1.58;;;27.70;53.80;;;;;;5050143;28;20043;-68
2023/09/06 11:18:32;;;;;;;2.13;1.85;;;27.80;53.20;;;;;;5044227;28;20508;-70
2023/09/06 11:20:59;;;;;;;2.63;2.10;;;27.80;53.80;;;;;;5036717;28;20377;-67
2023/09/06 11:23:26;;;;;;;2.10;1.52;;;27.70;53.30;;;;;;5018847;28;20045;-70
2023/09/06 11:25:58;;;;;;;3.60;2.20;;;27.70;53.70;;;;;;5040953;28;20036;-67
2023/09/06 11:28:28;;;;;;;5.32;2.10;;;27.70;53.80;;;;;;5049228;28;20029;-67
2023/09/06 11:30:55;;;;;;;2.20;1.90;;;27.80;54.10;;;;;;5041318;28;20163;-71
2023/09/06 11:33:29;;;;;;;2.63;1.80;;;27.80;53.80;;;;;;5047772;28;20045;-67
2023/09/06 11:35:58;;;;;;;3.42;1.80;;;27.90;54.60;;;;;;5046549;28;20469;-68
2023/09/06 11:38:33;;;;;;;2.65;1.90;;;28.10;54.90;;;;;;5047388;28;20465;-70
2023/09/06 11:41:01;;;;;;;2.03;1.70;;;28.10;54.60;;;;;;5051167;28;20045;-68
2023/09/06 11:43:27;;;;;;;3.78;2.03;;;28.20;54.60;;;;;;5050947;28;20448;-68
2023/09/06 11:46:01;;;;;;;3.38;1.70;;;28.20;54.70;;;;;;5012337;28;20124;-67
2023/09/06 11:48:30;;;;;;;3.95;2.10;;;28.20;54.60;;;;;;5046107;28;20492;-68
2023/09/06 11:51:08;;;;;;;4.70;2.20;;;28.30;54.50;;;;;;5048568;28;20045;-69
2023/09/06 11:53:36;;;;;;;2.67;1.60;;;28.30;54.00;;;;;;5051606;28;20132;-71
2023/09/06 11:56:05;;;;;;;2.85;2.00;;;28.40;54.10;;;;;;5044176;28;20036;-68
2023/09/06 11:58:32;;;;;;;5.80;1.88;;;28.40;53.70;;;;;;5045498;28;20072;-68
2023/09/06 12:01:01;;;;;;;2.00;1.50;;;28.40;53.90;;;;;;5047061;28;20061;-70
2023/09/06 12:03:30;;;;;;;2.75;1.88;;;28.50;54.40;;;;;;5048773;28;20412;-70
2023/09/06 12:06:00;;;;;;;4.20;1.70;;;28.50;54.40;;;;;;5046098;28;20029;-68
2023/09/06 12:08:27;;;;;;;3.17;1.70;;;28.60;52.90;;;;;;5049632;28;20045;-73
2023/09/06 12:10:58;;;;;;;3.35;1.55;;;28.60;53.40;;;;;;5047335;28;20062;-73
2023/09/06 12:13:30;;;;;;;3.22;2.00;;;28.70;52.40;;;;;;5052575;28;20049;-71
2023/09/06 12:15:57;;;;;;;2.45;1.80;;;28.80;53.60;;;;;;5027227;28;20179;-70
2023/09/06 12:18:24;;;;;;;2.80;1.60;;;28.80;53.60;;;;;;5043232;28;20060;-70
2023/09/06 12:20:50;;;;;;;3.78;1.70;;;28.90;52.90;;;;;;5046336;28;20067;-70
2023/09/06 12:23:20;;;;;;;3.90;1.90;;;29.00;53.10;;;;;;5032031;28;20488;-70
2023/09/06 12:25:45;;;;;;;2.27;1.40;;;29.00;54.00;;;;;;5047201;28;20044;-68
2023/09/06 12:28:11;;;;;;;2.03;1.80;;;29.10;53.80;;;;;;5046518;28;20088;-71
2023/09/06 12:30:36;;;;;;;2.22;1.73;;;29.20;53.60;;;;;;5024061;28;20731;-69
2023/09/06 12:33:03;;;;;;;2.05;1.48;;;29.30;52.60;;;;;;5043996;28;20583;-71
2023/09/06 12:35:28;;;;;;;1.60;1.40;;;29.40;52.10;;;;;;5042633;28;20045;-72
2023/09/06 12:37:55;;;;;;;1.83;1.38;;;29.50;52.30;;;;;;5050133;28;20049;-68
2023/09/06 12:40:27;;;;;;;3.13;1.70;;;29.60;51.70;;;;;;5043525;28;20087;-67
2023/09/06 12:42:53;;;;;;;2.08;1.60;;;29.60;51.20;;;;;;5044421;28;20518;-66
2023/09/06 12:45:29;;;;;;;1.85;1.55;;;29.70;51.30;;;;;;5043059;28;20045;-71
2023/09/06 12:47:56;;;;;;;2.80;1.70;;;29.80;50.30;;;;;;5048548;28;20033;-67